OLM - Olympia Rgnl

Pirep is a free, collaborative database of all public and private airports located within the United States. All pilots are welcome to contribute, edit, and improve any airport they have local knowledge about, no registration required.
Uploaded photos will be licensed under a CC BY-SA 4.0 license. Please only upload photos you have the rights to use.
Tags
Public
Museum
Webcam
METAR / TAF
Food
Edit Tags
Camping
Lodging
Car Rental
Bicycles
Swimming
Golfing
Fishing
Hot Springs
Flying Clubs
Airpark
Upcoming Events
No upcoming events. Is anything happening here soon?
*
*
*

Where exactly on/near the airport is this event taking place?

Is there a webpage with more information for this event?

Who should be contacted for more information?

What is this event all about?

Repeat every
Description
Last updated: 2024-04-11 23:47:08 PDT
Transient Parking
Last updated: 2023-04-09 19:26:59 PDT
Fuel Location
Landing & Tie-down Fees
Crew Car Availability
Flying Clubs
WiFi Access
Airport Statistics
Location: Olympia, WA
Elevation: 207ft
Sectional: Seattle
Activation date: Dec 1937
Fuel: 100LL, A (prices)
Runway 17/35: 5,500ft
Runway 08/26: 4,157ft
Access: Open to the public
Current Weather — MVFR
  • Weather data is strictly informational and not for flight planning purposes.
  • METAR
    2024-05-29 10:54:00 PDT
    Ceiling Wind Temperature Dewpoint Weather Visbility
    3,600ft 260° @ 6kt 51°F 46°F Light rain 4SM
    Clouds: Few @ 2,000ft, Broken @ 3,600ft, Broken @ 5,500ft
    Raw: KOLM 291754Z 26006KT 4SM -RA FEW020 BKN036 BKN055 11/08 A3031 RMK AO2 RAB41 SLP263 P0007 60009 T01110078 10139 20072 53009
  • TAF
    2024-05-29 11:00:00 PDT – 2024-05-29 14:00:00 PDT
    Ceiling Wind Weather Visbility
    5,000ft 230° @ 10kt Showers in vicinity 6SM
    Clouds: Broken @ 5,000ft
    Raw: KOLM 291727Z 2918/3018 23010KT P6SM VCSH BKN050 FM292100 25012G18KT P6SM VCSH SCT035 BKN050 FM300300 27009KT P6SM BKN040 FM300900 20004KT P6SM BKN050 FM301400 23004KT P6SM FEW020 BKN035
  • TAF
    2024-05-29 14:00:00 PDT – 2024-05-29 20:00:00 PDT
    Ceiling Wind Weather Visbility
    5,000ft 250° @ 12kt, gusts 18kt Showers in vicinity 6SM
    Clouds: Scattered @ 3,500ft, Broken @ 5,000ft
    Raw: KOLM 291727Z 2918/3018 23010KT P6SM VCSH BKN050 FM292100 25012G18KT P6SM VCSH SCT035 BKN050 FM300300 27009KT P6SM BKN040 FM300900 20004KT P6SM BKN050 FM301400 23004KT P6SM FEW020 BKN035
  • TAF
    2024-05-29 20:00:00 PDT – 2024-05-30 02:00:00 PDT
    Ceiling Wind Weather Visbility
    4,000ft 270° @ 9kt N/A 6SM
    Clouds: Broken @ 4,000ft
    Raw: KOLM 291727Z 2918/3018 23010KT P6SM VCSH BKN050 FM292100 25012G18KT P6SM VCSH SCT035 BKN050 FM300300 27009KT P6SM BKN040 FM300900 20004KT P6SM BKN050 FM301400 23004KT P6SM FEW020 BKN035
  • TAF
    2024-05-30 02:00:00 PDT – 2024-05-30 07:00:00 PDT
    Ceiling Wind Weather Visbility
    5,000ft 200° @ 4kt N/A 6SM
    Clouds: Broken @ 5,000ft
    Raw: KOLM 291727Z 2918/3018 23010KT P6SM VCSH BKN050 FM292100 25012G18KT P6SM VCSH SCT035 BKN050 FM300300 27009KT P6SM BKN040 FM300900 20004KT P6SM BKN050 FM301400 23004KT P6SM FEW020 BKN035
  • TAF
    2024-05-30 07:00:00 PDT – 2024-05-30 11:00:00 PDT
    Ceiling Wind Weather Visbility
    3,500ft 230° @ 4kt N/A 6SM
    Clouds: Few @ 2,000ft, Broken @ 3,500ft
    Raw: KOLM 291727Z 2918/3018 23010KT P6SM VCSH BKN050 FM292100 25012G18KT P6SM VCSH SCT035 BKN050 FM300300 27009KT P6SM BKN040 FM300900 20004KT P6SM BKN050 FM301400 23004KT P6SM FEW020 BKN035
Click/tap to add an annotation marker to the map
Airport Webcams
Direct links to live image URLs will be displayed inline on this page. URLs to separate webpages will be linked to.
URL:
Remarks
  • Estabd prior to 15 may 1959.
  • Twy lgts on twy w, a, l, and b.
  • Airport field conditions unmonitored 1700 lcl - 0700 lcl.
  • Emerg freq 121.5 not mnt at twr.
  • For cd when atct is clsd ctc seattle apch at 206-214-4723.
Comments
Leave a comment What was your experience like at this airport?